sensor_id;sensor_type;location;lat;lon;timestamp;P1;durP1;ratioP1;P2;durP2;ratioP2
28007;SDS011;15333;50.010;20.020;2022-12-18T00:00:16;166.77;;;54.22;;
28007;SDS011;15333;50.010;20.020;2022-12-18T00:03:39;159.95;;;54.53;;
28007;SDS011;15333;50.010;20.020;2022-12-18T00:06:40;150.27;;;50.13;;
28007;SDS011;15333;50.010;20.020;2022-12-18T00:09:41;162.35;;;53.38;;
28007;SDS011;15333;50.010;20.020;2022-12-18T00:12:41;153.05;;;52.03;;
28007;SDS011;15333;50.010;20.020;2022-12-18T00:15:43;163.13;;;52.30;;
28007;SDS011;15333;50.010;20.020;2022-12-18T00:18:43;160.73;;;53.08;;
28007;SDS011;15333;50.010;20.020;2022-12-18T00:21:45;155.25;;;54.42;;
28007;SDS011;15333;50.010;20.020;2022-12-18T00:24:46;151.27;;;50.42;;
28007;SDS011;15333;50.010;20.020;2022-12-18T00:27:47;141.23;;;50.10;;
28007;SDS011;15333;50.010;20.020;2022-12-18T00:30:48;144.57;;;49.20;;
28007;SDS011;15333;50.010;20.020;2022-12-18T00:33:53;144.65;;;49.30;;
28007;SDS011;15333;50.010;20.020;2022-12-18T00:36:55;147.18;;;48.63;;
28007;SDS011;15333;50.010;20.020;2022-12-18T00:39:56;135.80;;;48.78;;
28007;SDS011;15333;50.010;20.020;2022-12-18T00:42:57;145.15;;;50.83;;
28007;SDS011;15333;50.010;20.020;2022-12-18T00:45:58;141.02;;;51.15;;
28007;SDS011;15333;50.010;20.020;2022-12-18T00:48:59;135.43;;;48.95;;
28007;SDS011;15333;50.010;20.020;2022-12-18T00:52:01;147.60;;;52.80;;
28007;SDS011;15333;50.010;20.020;2022-12-18T00:55:01;153.80;;;52.13;;
28007;SDS011;15333;50.010;20.020;2022-12-18T00:58:02;157.18;;;51.92;;
28007;SDS011;15333;50.010;20.020;2022-12-18T01:01:04;154.38;;;51.35;;
28007;SDS011;15333;50.010;20.020;2022-12-18T01:04:08;151.90;;;50.50;;
28007;SDS011;15333;50.010;20.020;2022-12-18T01:07:09;146.07;;;49.13;;
28007;SDS011;15333;50.010;20.020;2022-12-18T01:10:10;149.27;;;51.03;;
28007;SDS011;15333;50.010;20.020;2022-12-18T01:13:12;141.18;;;47.22;;
28007;SDS011;15333;50.010;20.020;2022-12-18T01:16:14;147.88;;;48.85;;
28007;SDS011;15333;50.010;20.020;2022-12-18T01:19:17;139.43;;;47.42;;
28007;SDS011;15333;50.010;20.020;2022-12-18T01:22:18;138.75;;;50.08;;
28007;SDS011;15333;50.010;20.020;2022-12-18T01:25:19;146.38;;;52.08;;
28007;SDS011;15333;50.010;20.020;2022-12-18T01:28:20;145.15;;;49.38;;
28007;SDS011;15333;50.010;20.020;2022-12-18T01:31:22;147.65;;;49.28;;
28007;SDS011;15333;50.010;20.020;2022-12-18T01:34:25;158.82;;;50.90;;
28007;SDS011;15333;50.010;20.020;2022-12-18T01:37:26;155.40;;;52.60;;
28007;SDS011;15333;50.010;20.020;2022-12-18T01:40:27;147.05;;;48.65;;
28007;SDS011;15333;50.010;20.020;2022-12-18T01:43:44;140.02;;;47.90;;
28007;SDS011;15333;50.010;20.020;2022-12-18T01:46:55;142.63;;;49.63;;
28007;SDS011;15333;50.010;20.020;2022-12-18T01:49:57;137.63;;;48.78;;
28007;SDS011;15333;50.010;20.020;2022-12-18T01:53:02;140.77;;;47.95;;
28007;SDS011;15333;50.010;20.020;2022-12-18T01:56:07;144.18;;;48.05;;
28007;SDS011;15333;50.010;20.020;2022-12-18T01:59:10;141.65;;;49.75;;
28007;SDS011;15333;50.010;20.020;2022-12-18T02:02:13;144.05;;;51.92;;
28007;SDS011;15333;50.010;20.020;2022-12-18T02:05:16;144.55;;;51.95;;
28007;SDS011;15333;50.010;20.020;2022-12-18T02:15:15;142.75;;;49.50;;
28007;SDS011;15333;50.010;20.020;2022-12-18T02:18:30;139.23;;;50.15;;
28007;SDS011;15333;50.010;20.020;2022-12-18T02:28:13;142.85;;;49.55;;
28007;SDS011;15333;50.010;20.020;2022-12-18T02:31:23;148.35;;;48.60;;
28007;SDS011;15333;50.010;20.020;2022-12-18T02:34:29;150.93;;;51.22;;
28007;SDS011;15333;50.010;20.020;2022-12-18T02:37:33;146.15;;;49.65;;
28007;SDS011;15333;50.010;20.020;2022-12-18T02:40:37;131.27;;;46.88;;
28007;SDS011;15333;50.010;20.020;2022-12-18T02:43:40;137.25;;;48.65;;
28007;SDS011;15333;50.010;20.020;2022-12-18T02:46:48;137.80;;;48.10;;
28007;SDS011;15333;50.010;20.020;2022-12-18T02:56:25;140.88;;;51.10;;
28007;SDS011;15333;50.010;20.020;2022-12-18T02:59:39;134.43;;;47.83;;
28007;SDS011;15333;50.010;20.020;2022-12-18T03:06:12;135.30;;;46.80;;
28007;SDS011;15333;50.010;20.020;2022-12-18T03:09:30;135.63;;;48.42;;
28007;SDS011;15333;50.010;20.020;2022-12-18T03:12:35;128.52;;;45.72;;
28007;SDS011;15333;50.010;20.020;2022-12-18T03:15:44;132.95;;;48.67;;
28007;SDS011;15333;50.010;20.020;2022-12-18T03:18:52;135.77;;;50.70;;
28007;SDS011;15333;50.010;20.020;2022-12-18T03:21:59;140.38;;;51.20;;
28007;SDS011;15333;50.010;20.020;2022-12-18T03:25:09;143.23;;;49.42;;
28007;SDS011;15333;50.010;20.020;2022-12-18T03:28:16;127.32;;;46.17;;
28007;SDS011;15333;50.010;20.020;2022-12-18T03:31:23;130.80;;;47.42;;
28007;SDS011;15333;50.010;20.020;2022-12-18T03:34:32;134.77;;;47.38;;
28007;SDS011;15333;50.010;20.020;2022-12-18T03:37:37;127.97;;;46.50;;
28007;SDS011;15333;50.010;20.020;2022-12-18T03:44:00;129.48;;;48.20;;
28007;SDS011;15333;50.010;20.020;2022-12-18T03:47:13;135.10;;;46.63;;
28007;SDS011;15333;50.010;20.020;2022-12-18T03:50:19;135.23;;;47.28;;
28007;SDS011;15333;50.010;20.020;2022-12-18T03:56:36;133.35;;;48.58;;
28007;SDS011;15333;50.010;20.020;2022-12-18T03:59:43;136.43;;;46.83;;
28007;SDS011;15333;50.010;20.020;2022-12-18T04:02:49;133.65;;;44.67;;
28007;SDS011;15333;50.010;20.020;2022-12-18T04:05:58;128.88;;;45.65;;
28007;SDS011;15333;50.010;20.020;2022-12-18T04:09:01;136.85;;;47.55;;
28007;SDS011;15333;50.010;20.020;2022-12-18T04:12:06;129.98;;;47.67;;
28007;SDS011;15333;50.010;20.020;2022-12-18T04:15:07;130.27;;;45.67;;
28007;SDS011;15333;50.010;20.020;2022-12-18T04:18:10;128.93;;;47.30;;
28007;SDS011;15333;50.010;20.020;2022-12-18T04:21:14;126.53;;;47.25;;
28007;SDS011;15333;50.010;20.020;2022-12-18T04:24:16;141.35;;;48.75;;
28007;SDS011;15333;50.010;20.020;2022-12-18T04:27:26;138.20;;;49.42;;
28007;SDS011;15333;50.010;20.020;2022-12-18T04:30:27;152.88;;;52.78;;
28007;SDS011;15333;50.010;20.020;2022-12-18T04:33:28;140.55;;;51.88;;
28007;SDS011;15333;50.010;20.020;2022-12-18T04:36:29;141.23;;;51.83;;
28007;SDS011;15333;50.010;20.020;2022-12-18T04:39:30;151.75;;;53.03;;
28007;SDS011;15333;50.010;20.020;2022-12-18T04:42:36;146.38;;;50.95;;
28007;SDS011;15333;50.010;20.020;2022-12-18T04:45:37;140.75;;;51.78;;
28007;SDS011;15333;50.010;20.020;2022-12-18T04:48:38;149.55;;;54.78;;
28007;SDS011;15333;50.010;20.020;2022-12-18T04:51:38;143.50;;;50.10;;
28007;SDS011;15333;50.010;20.020;2022-12-18T04:54:39;141.20;;;50.13;;
28007;SDS011;15333;50.010;20.020;2022-12-18T04:57:40;136.95;;;52.00;;
28007;SDS011;15333;50.010;20.020;2022-12-18T05:00:41;133.43;;;50.25;;
28007;SDS011;15333;50.010;20.020;2022-12-18T05:03:42;134.73;;;47.95;;
28007;SDS011;15333;50.010;20.020;2022-12-18T05:06:43;138.77;;;47.00;;
28007;SDS011;15333;50.010;20.020;2022-12-18T05:09:44;125.68;;;44.55;;
28007;SDS011;15333;50.010;20.020;2022-12-18T05:12:45;122.22;;;44.92;;
28007;SDS011;15333;50.010;20.020;2022-12-18T05:16:02;123.00;;;43.53;;
28007;SDS011;15333;50.010;20.020;2022-12-18T05:19:03;123.00;;;43.90;;
28007;SDS011;15333;50.010;20.020;2022-12-18T05:22:04;125.47;;;46.33;;
28007;SDS011;15333;50.010;20.020;2022-12-18T05:25:05;119.75;;;44.20;;
28007;SDS011;15333;50.010;20.020;2022-12-18T05:28:06;123.28;;;44.63;;
28007;SDS011;15333;50.010;20.020;2022-12-18T05:31:08;122.53;;;44.20;;
28007;SDS011;15333;50.010;20.020;2022-12-18T05:34:08;109.40;;;40.65;;
28007;SDS011;15333;50.010;20.020;2022-12-18T05:37:09;116.10;;;40.40;;
28007;SDS011;15333;50.010;20.020;2022-12-18T05:40:10;119.40;;;42.10;;
28007;SDS011;15333;50.010;20.020;2022-12-18T05:43:12;118.53;;;41.92;;
28007;SDS011;15333;50.010;20.020;2022-12-18T05:46:13;124.97;;;43.22;;
28007;SDS011;15333;50.010;20.020;2022-12-18T05:49:18;118.53;;;42.58;;
28007;SDS011;15333;50.010;20.020;2022-12-18T05:52:18;123.78;;;42.33;;
28007;SDS011;15333;50.010;20.020;2022-12-18T05:55:19;117.43;;;42.38;;
28007;SDS011;15333;50.010;20.020;2022-12-18T05:58:20;114.50;;;39.88;;
28007;SDS011;15333;50.010;20.020;2022-12-18T06:01:23;117.90;;;41.42;;
28007;SDS011;15333;50.010;20.020;2022-12-18T06:04:26;124.38;;;44.85;;
28007;SDS011;15333;50.010;20.020;2022-12-18T06:07:29;128.05;;;42.83;;
28007;SDS011;15333;50.010;20.020;2022-12-18T06:10:30;118.32;;;43.33;;
28007;SDS011;15333;50.010;20.020;2022-12-18T06:13:31;120.32;;;41.50;;
28007;SDS011;15333;50.010;20.020;2022-12-18T06:16:32;119.35;;;41.78;;
28007;SDS011;15333;50.010;20.020;2022-12-18T06:19:33;125.63;;;44.70;;
28007;SDS011;15333;50.010;20.020;2022-12-18T06:22:34;125.88;;;42.85;;
28007;SDS011;15333;50.010;20.020;2022-12-18T06:25:37;128.13;;;43.72;;
28007;SDS011;15333;50.010;20.020;2022-12-18T06:28:38;126.45;;;43.92;;
28007;SDS011;15333;50.010;20.020;2022-12-18T06:31:40;120.30;;;42.17;;
28007;SDS011;15333;50.010;20.020;2022-12-18T06:34:40;137.10;;;47.53;;
28007;SDS011;15333;50.010;20.020;2022-12-18T06:37:41;128.65;;;45.38;;
28007;SDS011;15333;50.010;20.020;2022-12-18T06:40:42;115.50;;;41.10;;
28007;SDS011;15333;50.010;20.020;2022-12-18T06:43:44;128.63;;;47.30;;
28007;SDS011;15333;50.010;20.020;2022-12-18T06:46:45;135.48;;;48.22;;
28007;SDS011;15333;50.010;20.020;2022-12-18T06:49:46;130.43;;;48.53;;
28007;SDS011;15333;50.010;20.020;2022-12-18T06:52:47;123.40;;;41.65;;
28007;SDS011;15333;50.010;20.020;2022-12-18T06:55:48;123.78;;;42.78;;
28007;SDS011;15333;50.010;20.020;2022-12-18T06:58:49;118.72;;;42.03;;
28007;SDS011;15333;50.010;20.020;2022-12-18T07:01:50;118.15;;;43.75;;
28007;SDS011;15333;50.010;20.020;2022-12-18T07:04:50;123.10;;;42.33;;
28007;SDS011;15333;50.010;20.020;2022-12-18T07:07:52;120.80;;;39.92;;
28007;SDS011;15333;50.010;20.020;2022-12-18T07:10:52;127.22;;;41.63;;
28007;SDS011;15333;50.010;20.020;2022-12-18T07:13:54;125.47;;;44.65;;
28007;SDS011;15333;50.010;20.020;2022-12-18T07:16:55;122.38;;;43.13;;
28007;SDS011;15333;50.010;20.020;2022-12-18T07:19:56;123.18;;;42.97;;
28007;SDS011;15333;50.010;20.020;2022-12-18T07:22:57;123.40;;;40.90;;
28007;SDS011;15333;50.010;20.020;2022-12-18T07:26:17;119.97;;;42.88;;
28007;SDS011;15333;50.010;20.020;2022-12-18T07:29:20;127.10;;;47.00;;
28007;SDS011;15333;50.010;20.020;2022-12-18T07:32:21;122.55;;;42.63;;
28007;SDS011;15333;50.010;20.020;2022-12-18T07:35:21;128.75;;;42.67;;
28007;SDS011;15333;50.010;20.020;2022-12-18T07:38:22;118.63;;;42.63;;
28007;SDS011;15333;50.010;20.020;2022-12-18T07:41:23;126.45;;;44.45;;
28007;SDS011;15333;50.010;20.020;2022-12-18T07:44:24;128.63;;;41.67;;
28007;SDS011;15333;50.010;20.020;2022-12-18T07:47:25;126.25;;;44.08;;
28007;SDS011;15333;50.010;20.020;2022-12-18T07:50:26;126.82;;;44.35;;
28007;SDS011;15333;50.010;20.020;2022-12-18T07:53:27;119.30;;;43.08;;
28007;SDS011;15333;50.010;20.020;2022-12-18T07:56:28;122.25;;;43.13;;
28007;SDS011;15333;50.010;20.020;2022-12-18T07:59:29;124.63;;;42.80;;
28007;SDS011;15333;50.010;20.020;2022-12-18T08:02:31;124.63;;;40.85;;
28007;SDS011;15333;50.010;20.020;2022-12-18T08:05:32;119.00;;;40.92;;
28007;SDS011;15333;50.010;20.020;2022-12-18T08:08:33;119.05;;;41.97;;
28007;SDS011;15333;50.010;20.020;2022-12-18T08:11:35;124.53;;;43.05;;
28007;SDS011;15333;50.010;20.020;2022-12-18T08:14:36;126.30;;;43.15;;
28007;SDS011;15333;50.010;20.020;2022-12-18T08:17:37;124.82;;;43.00;;
28007;SDS011;15333;50.010;20.020;2022-12-18T08:20:38;124.82;;;46.42;;
28007;SDS011;15333;50.010;20.020;2022-12-18T08:23:39;126.00;;;44.67;;
28007;SDS011;15333;50.010;20.020;2022-12-18T08:26:40;128.07;;;46.35;;
28007;SDS011;15333;50.010;20.020;2022-12-18T08:29:41;131.55;;;47.13;;
28007;SDS011;15333;50.010;20.020;2022-12-18T08:32:42;132.10;;;47.47;;
28007;SDS011;15333;50.010;20.020;2022-12-18T08:35:43;131.40;;;45.58;;
28007;SDS011;15333;50.010;20.020;2022-12-18T08:38:44;139.90;;;48.85;;
28007;SDS011;15333;50.010;20.020;2022-12-18T08:41:45;134.90;;;46.38;;
28007;SDS011;15333;50.010;20.020;2022-12-18T08:45:06;137.45;;;49.03;;
28007;SDS011;15333;50.010;20.020;2022-12-18T08:48:07;135.25;;;48.85;;
28007;SDS011;15333;50.010;20.020;2022-12-18T08:51:08;128.90;;;45.80;;
28007;SDS011;15333;50.010;20.020;2022-12-18T08:54:13;129.05;;;44.17;;
28007;SDS011;15333;50.010;20.020;2022-12-18T08:57:16;128.75;;;45.22;;
28007;SDS011;15333;50.010;20.020;2022-12-18T09:00:17;132.20;;;47.50;;
28007;SDS011;15333;50.010;20.020;2022-12-18T09:03:18;120.47;;;44.08;;
28007;SDS011;15333;50.010;20.020;2022-12-18T09:06:21;130.55;;;46.35;;
28007;SDS011;15333;50.010;20.020;2022-12-18T09:09:22;135.32;;;45.17;;
28007;SDS011;15333;50.010;20.020;2022-12-18T09:12:23;126.13;;;43.92;;
28007;SDS011;15333;50.010;20.020;2022-12-18T09:15:24;123.00;;;44.58;;
28007;SDS011;15333;50.010;20.020;2022-12-18T09:18:25;117.80;;;41.83;;
28007;SDS011;15333;50.010;20.020;2022-12-18T09:21:27;118.45;;;43.10;;
28007;SDS011;15333;50.010;20.020;2022-12-18T09:24:29;118.55;;;43.95;;
28007;SDS011;15333;50.010;20.020;2022-12-18T09:27:30;118.18;;;42.83;;
28007;SDS011;15333;50.010;20.020;2022-12-18T09:30:31;116.47;;;41.80;;
28007;SDS011;15333;50.010;20.020;2022-12-18T09:33:36;121.60;;;42.45;;
28007;SDS011;15333;50.010;20.020;2022-12-18T09:36:37;120.10;;;41.88;;
28007;SDS011;15333;50.010;20.020;2022-12-18T09:39:38;120.80;;;42.72;;
28007;SDS011;15333;50.010;20.020;2022-12-18T09:42:39;121.70;;;42.33;;
28007;SDS011;15333;50.010;20.020;2022-12-18T09:45:41;118.65;;;42.33;;
28007;SDS011;15333;50.010;20.020;2022-12-18T09:48:47;114.87;;;40.40;;
28007;SDS011;15333;50.010;20.020;2022-12-18T09:55:22;111.68;;;37.78;;
28007;SDS011;15333;50.010;20.020;2022-12-18T09:58:28;116.82;;;41.50;;
28007;SDS011;15333;50.010;20.020;2022-12-18T10:01:34;116.18;;;40.83;;
28007;SDS011;15333;50.010;20.020;2022-12-18T10:04:35;114.25;;;39.95;;
28007;SDS011;15333;50.010;20.020;2022-12-18T10:07:39;109.32;;;37.80;;
28007;SDS011;15333;50.010;20.020;2022-12-18T10:10:57;109.13;;;41.22;;
28007;SDS011;15333;50.010;20.020;2022-12-18T10:14:14;108.97;;;37.67;;
28007;SDS011;15333;50.010;20.020;2022-12-18T10:20:41;114.95;;;39.30;;
28007;SDS011;15333;50.010;20.020;2022-12-18T10:27:35;108.68;;;40.03;;
28007;SDS011;15333;50.010;20.020;2022-12-18T10:30:29;108.93;;;37.63;;
28007;SDS011;15333;50.010;20.020;2022-12-18T10:33:31;101.90;;;38.58;;
28007;SDS011;15333;50.010;20.020;2022-12-18T10:36:34;105.97;;;37.42;;
28007;SDS011;15333;50.010;20.020;2022-12-18T10:39:35;104.78;;;36.83;;
28007;SDS011;15333;50.010;20.020;2022-12-18T10:42:36;104.40;;;36.78;;
28007;SDS011;15333;50.010;20.020;2022-12-18T10:45:36;98.95;;;34.15;;
28007;SDS011;15333;50.010;20.020;2022-12-18T10:51:41;102.35;;;37.67;;
28007;SDS011;15333;50.010;20.020;2022-12-18T10:55:01;104.70;;;36.33;;
28007;SDS011;15333;50.010;20.020;2022-12-18T11:05:26;102.38;;;36.92;;
28007;SDS011;15333;50.010;20.020;2022-12-18T11:08:32;100.68;;;37.30;;
28007;SDS011;15333;50.010;20.020;2022-12-18T11:11:33;96.40;;;34.10;;
28007;SDS011;15333;50.010;20.020;2022-12-18T11:14:47;89.10;;;34.60;;
28007;SDS011;15333;50.010;20.020;2022-12-18T11:17:51;82.22;;;30.45;;
28007;SDS011;15333;50.010;20.020;2022-12-18T11:20:57;88.55;;;31.58;;
28007;SDS011;15333;50.010;20.020;2022-12-18T11:24:00;82.97;;;30.05;;
28007;SDS011;15333;50.010;20.020;2022-12-18T11:27:02;74.95;;;26.88;;
28007;SDS011;15333;50.010;20.020;2022-12-18T11:30:10;57.38;;;21.98;;
28007;SDS011;15333;50.010;20.020;2022-12-18T11:33:29;57.88;;;21.35;;
28007;SDS011;15333;50.010;20.020;2022-12-18T11:36:33;61.40;;;21.58;;
28007;SDS011;15333;50.010;20.020;2022-12-18T11:39:40;55.42;;;20.50;;
28007;SDS011;15333;50.010;20.020;2022-12-18T11:42:51;63.65;;;23.48;;
28007;SDS011;15333;50.010;20.020;2022-12-18T11:46:01;59.28;;;22.00;;
28007;SDS011;15333;50.010;20.020;2022-12-18T11:49:08;47.38;;;18.92;;
28007;SDS011;15333;50.010;20.020;2022-12-18T11:55:41;52.25;;;20.92;;
28007;SDS011;15333;50.010;20.020;2022-12-18T12:16:03;84.10;;;30.50;;
28007;SDS011;15333;50.010;20.020;2022-12-18T12:33:04;91.30;;;33.03;;
28007;SDS011;15333;50.010;20.020;2022-12-18T12:36:24;79.95;;;29.75;;
28007;SDS011;15333;50.010;20.020;2022-12-18T12:39:36;80.13;;;28.65;;
28007;SDS011;15333;50.010;20.020;2022-12-18T12:42:41;74.13;;;29.25;;
28007;SDS011;15333;50.010;20.020;2022-12-18T12:46:06;76.25;;;29.42;;
28007;SDS011;15333;50.010;20.020;2022-12-18T12:49:11;79.32;;;29.23;;
28007;SDS011;15333;50.010;20.020;2022-12-18T12:52:32;86.13;;;32.05;;
28007;SDS011;15333;50.010;20.020;2022-12-18T12:55:42;85.70;;;29.52;;
28007;SDS011;15333;50.010;20.020;2022-12-18T13:02:39;82.93;;;30.20;;
28007;SDS011;15333;50.010;20.020;2022-12-18T13:05:31;79.68;;;29.92;;
28007;SDS011;15333;50.010;20.020;2022-12-18T13:08:51;83.47;;;30.98;;
28007;SDS011;15333;50.010;20.020;2022-12-18T13:11:54;81.70;;;30.77;;
28007;SDS011;15333;50.010;20.020;2022-12-18T13:15:23;83.88;;;30.75;;
28007;SDS011;15333;50.010;20.020;2022-12-18T13:18:25;90.30;;;31.48;;
28007;SDS011;15333;50.010;20.020;2022-12-18T13:21:28;87.68;;;32.78;;
28007;SDS011;15333;50.010;20.020;2022-12-18T13:24:31;79.82;;;30.83;;
28007;SDS011;15333;50.010;20.020;2022-12-18T13:30:56;88.70;;;31.65;;
28007;SDS011;15333;50.010;20.020;2022-12-18T13:34:17;86.25;;;30.70;;
28007;SDS011;15333;50.010;20.020;2022-12-18T13:37:38;88.47;;;30.02;;
28007;SDS011;15333;50.010;20.020;2022-12-18T13:43:46;78.22;;;29.92;;
28007;SDS011;15333;50.010;20.020;2022-12-18T13:46:48;80.72;;;30.38;;
28007;SDS011;15333;50.010;20.020;2022-12-18T13:49:51;82.35;;;29.52;;
28007;SDS011;15333;50.010;20.020;2022-12-18T13:52:53;99.18;;;37.00;;
28007;SDS011;15333;50.010;20.020;2022-12-18T13:55:54;96.70;;;36.22;;
28007;SDS011;15333;50.010;20.020;2022-12-18T14:02:20;107.32;;;37.67;;
28007;SDS011;15333;50.010;20.020;2022-12-18T14:08:24;111.70;;;41.63;;
28007;SDS011;15333;50.010;20.020;2022-12-18T14:11:31;125.03;;;46.60;;
28007;SDS011;15333;50.010;20.020;2022-12-18T14:14:32;124.22;;;50.53;;
28007;SDS011;15333;50.010;20.020;2022-12-18T14:17:33;127.55;;;48.10;;
28007;SDS011;15333;50.010;20.020;2022-12-18T14:20:35;116.32;;;44.38;;
28007;SDS011;15333;50.010;20.020;2022-12-18T14:23:37;123.82;;;48.72;;
28007;SDS011;15333;50.010;20.020;2022-12-18T14:26:42;124.72;;;47.50;;
28007;SDS011;15333;50.010;20.020;2022-12-18T14:29:43;138.25;;;50.83;;
28007;SDS011;15333;50.010;20.020;2022-12-18T14:32:58;129.38;;;50.40;;
28007;SDS011;15333;50.010;20.020;2022-12-18T14:36:01;143.77;;;54.00;;
28007;SDS011;15333;50.010;20.020;2022-12-18T14:39:04;140.20;;;53.85;;
28007;SDS011;15333;50.010;20.020;2022-12-18T14:42:05;143.20;;;56.85;;
28007;SDS011;15333;50.010;20.020;2022-12-18T14:48:42;158.10;;;62.40;;
28007;SDS011;15333;50.010;20.020;2022-12-18T14:51:48;159.20;;;61.47;;
28007;SDS011;15333;50.010;20.020;2022-12-18T14:54:51;156.25;;;65.53;;
28007;SDS011;15333;50.010;20.020;2022-12-18T14:57:53;159.88;;;68.32;;
28007;SDS011;15333;50.010;20.020;2022-12-18T15:00:56;149.02;;;68.22;;
28007;SDS011;15333;50.010;20.020;2022-12-18T15:03:58;168.77;;;69.95;;
28007;SDS011;15333;50.010;20.020;2022-12-18T15:07:04;166.63;;;74.43;;
28007;SDS011;15333;50.010;20.020;2022-12-18T15:10:21;167.95;;;71.60;;
28007;SDS011;15333;50.010;20.020;2022-12-18T15:13:24;173.52;;;75.95;;
28007;SDS011;15333;50.010;20.020;2022-12-18T15:16:26;184.48;;;81.53;;
28007;SDS011;15333;50.010;20.020;2022-12-18T15:19:39;187.43;;;83.18;;
28007;SDS011;15333;50.010;20.020;2022-12-18T15:22:43;191.43;;;82.90;;
28007;SDS011;15333;50.010;20.020;2022-12-18T15:25:48;187.32;;;80.93;;
28007;SDS011;15333;50.010;20.020;2022-12-18T15:35:13;203.77;;;83.97;;
28007;SDS011;15333;50.010;20.020;2022-12-18T15:38:14;209.90;;;92.68;;
28007;SDS011;15333;50.010;20.020;2022-12-18T15:41:16;206.02;;;89.20;;
28007;SDS011;15333;50.010;20.020;2022-12-18T15:44:22;205.45;;;85.80;;
28007;SDS011;15333;50.010;20.020;2022-12-18T15:47:25;209.70;;;93.85;;
28007;SDS011;15333;50.010;20.020;2022-12-18T15:50:26;224.05;;;96.57;;
28007;SDS011;15333;50.010;20.020;2022-12-18T15:53:30;225.63;;;96.05;;
28007;SDS011;15333;50.010;20.020;2022-12-18T15:56:34;213.82;;;90.75;;
28007;SDS011;15333;50.010;20.020;2022-12-18T15:59:54;204.55;;;91.50;;
28007;SDS011;15333;50.010;20.020;2022-12-18T16:02:59;213.02;;;95.57;;
28007;SDS011;15333;50.010;20.020;2022-12-18T16:06:00;233.27;;;100.43;;
28007;SDS011;15333;50.010;20.020;2022-12-18T16:09:02;226.00;;;104.68;;
28007;SDS011;15333;50.010;20.020;2022-12-18T16:12:04;244.77;;;113.82;;
28007;SDS011;15333;50.010;20.020;2022-12-18T16:15:06;251.10;;;113.43;;
28007;SDS011;15333;50.010;20.020;2022-12-18T16:18:08;252.85;;;112.20;;
28007;SDS011;15333;50.010;20.020;2022-12-18T16:21:09;260.05;;;118.25;;
28007;SDS011;15333;50.010;20.020;2022-12-18T16:24:14;262.15;;;114.70;;
28007;SDS011;15333;50.010;20.020;2022-12-18T16:27:17;255.45;;;114.15;;
28007;SDS011;15333;50.010;20.020;2022-12-18T16:30:20;268.65;;;123.57;;
28007;SDS011;15333;50.010;20.020;2022-12-18T16:33:22;277.13;;;123.45;;
28007;SDS011;15333;50.010;20.020;2022-12-18T16:36:24;265.42;;;120.55;;
28007;SDS011;15333;50.010;20.020;2022-12-18T16:39:25;272.25;;;119.47;;
28007;SDS011;15333;50.010;20.020;2022-12-18T16:42:26;276.83;;;121.78;;
28007;SDS011;15333;50.010;20.020;2022-12-18T16:45:27;276.08;;;117.38;;
28007;SDS011;15333;50.010;20.020;2022-12-18T16:48:33;270.90;;;116.03;;
28007;SDS011;15333;50.010;20.020;2022-12-18T16:51:34;271.88;;;119.18;;
28007;SDS011;15333;50.010;20.020;2022-12-18T16:54:35;267.63;;;114.88;;
28007;SDS011;15333;50.010;20.020;2022-12-18T16:57:37;294.15;;;128.85;;
28007;SDS011;15333;50.010;20.020;2022-12-18T17:00:38;330.15;;;142.45;;
28007;SDS011;15333;50.010;20.020;2022-12-18T17:03:40;315.55;;;135.50;;
28007;SDS011;15333;50.010;20.020;2022-12-18T17:06:42;362.02;;;154.27;;
28007;SDS011;15333;50.010;20.020;2022-12-18T17:09:45;377.65;;;169.18;;
28007;SDS011;15333;50.010;20.020;2022-12-18T17:12:46;354.00;;;153.20;;
28007;SDS011;15333;50.010;20.020;2022-12-18T17:15:46;359.42;;;160.63;;
28007;SDS011;15333;50.010;20.020;2022-12-18T17:18:48;381.67;;;175.63;;
28007;SDS011;15333;50.010;20.020;2022-12-18T17:21:49;338.88;;;149.05;;
28007;SDS011;15333;50.010;20.020;2022-12-18T17:24:50;336.85;;;154.98;;
28007;SDS011;15333;50.010;20.020;2022-12-18T17:27:51;339.75;;;148.48;;
28007;SDS011;15333;50.010;20.020;2022-12-18T17:30:53;334.60;;;151.40;;
28007;SDS011;15333;50.010;20.020;2022-12-18T17:33:55;356.88;;;163.82;;
28007;SDS011;15333;50.010;20.020;2022-12-18T17:36:57;315.13;;;140.18;;
28007;SDS011;15333;50.010;20.020;2022-12-18T17:39:58;378.13;;;167.82;;
28007;SDS011;15333;50.010;20.020;2022-12-18T17:42:59;517.30;;;251.27;;
28007;SDS011;15333;50.010;20.020;2022-12-18T17:46:03;493.65;;;238.95;;
28007;SDS011;15333;50.010;20.020;2022-12-18T17:49:06;502.73;;;243.07;;
28007;SDS011;15333;50.010;20.020;2022-12-18T17:52:07;476.80;;;240.43;;
28007;SDS011;15333;50.010;20.020;2022-12-18T17:55:08;482.00;;;233.05;;
28007;SDS011;15333;50.010;20.020;2022-12-18T17:58:09;428.77;;;205.73;;
28007;SDS011;15333;50.010;20.020;2022-12-18T18:01:14;423.63;;;202.85;;
28007;SDS011;15333;50.010;20.020;2022-12-18T18:04:17;385.73;;;187.15;;
28007;SDS011;15333;50.010;20.020;2022-12-18T18:07:18;388.08;;;178.75;;
28007;SDS011;15333;50.010;20.020;2022-12-18T18:10:18;384.75;;;182.48;;
28007;SDS011;15333;50.010;20.020;2022-12-18T18:13:20;436.67;;;214.30;;
28007;SDS011;15333;50.010;20.020;2022-12-18T18:16:46;449.08;;;219.48;;
28007;SDS011;15333;50.010;20.020;2022-12-18T18:19:49;428.27;;;211.95;;
28007;SDS011;15333;50.010;20.020;2022-12-18T18:22:49;422.92;;;206.82;;
28007;SDS011;15333;50.010;20.020;2022-12-18T18:25:50;418.75;;;205.43;;
28007;SDS011;15333;50.010;20.020;2022-12-18T18:28:52;414.63;;;199.18;;
28007;SDS011;15333;50.010;20.020;2022-12-18T18:31:53;417.90;;;203.57;;
28007;SDS011;15333;50.010;20.020;2022-12-18T18:34:54;399.42;;;188.02;;
28007;SDS011;15333;50.010;20.020;2022-12-18T18:37:55;400.30;;;186.38;;
28007;SDS011;15333;50.010;20.020;2022-12-18T18:41:00;380.17;;;174.85;;
28007;SDS011;15333;50.010;20.020;2022-12-18T18:44:02;394.52;;;191.43;;
28007;SDS011;15333;50.010;20.020;2022-12-18T18:47:04;403.27;;;192.73;;
28007;SDS011;15333;50.010;20.020;2022-12-18T18:50:05;428.08;;;201.30;;
28007;SDS011;15333;50.010;20.020;2022-12-18T18:53:06;421.63;;;208.85;;
28007;SDS011;15333;50.010;20.020;2022-12-18T18:56:08;424.45;;;205.52;;
28007;SDS011;15333;50.010;20.020;2022-12-18T18:59:10;428.92;;;204.00;;
28007;SDS011;15333;50.010;20.020;2022-12-18T19:02:12;441.13;;;222.07;;
28007;SDS011;15333;50.010;20.020;2022-12-18T19:05:14;449.38;;;212.38;;
28007;SDS011;15333;50.010;20.020;2022-12-18T19:08:16;438.58;;;206.38;;
28007;SDS011;15333;50.010;20.020;2022-12-18T19:11:17;440.23;;;205.10;;
28007;SDS011;15333;50.010;20.020;2022-12-18T19:14:38;463.77;;;212.40;;